sensor_id;sensor_type;location;lat;lon;timestamp;P1;durP1;ratioP1;P2;durP2;ratioP2
78197;SDS011;67472;51.554;7.812;2024-02-04T00:02:07;23.42;;;15.48;;
78197;SDS011;67472;51.554;7.812;2024-02-04T00:04:58;21.30;;;14.98;;
78197;SDS011;67472;51.554;7.812;2024-02-04T00:07:47;22.60;;;15.23;;
78197;SDS011;67472;51.554;7.812;2024-02-04T00:10:33;20.48;;;15.50;;
78197;SDS011;67472;51.554;7.812;2024-02-04T00:13:20;22.35;;;15.27;;
78197;SDS011;67472;51.554;7.812;2024-02-04T00:16:07;22.45;;;15.63;;
78197;SDS011;67472;51.554;7.812;2024-02-04T00:18:53;23.00;;;15.45;;
78197;SDS011;67472;51.554;7.812;2024-02-04T00:21:40;21.60;;;15.55;;
78197;SDS011;67472;51.554;7.812;2024-02-04T00:24:28;18.25;;;14.50;;
78197;SDS011;67472;51.554;7.812;2024-02-04T00:27:16;23.50;;;15.77;;
78197;SDS011;67472;51.554;7.812;2024-02-04T00:30:03;18.88;;;15.02;;
78197;SDS011;67472;51.554;7.812;2024-02-04T00:32:51;20.65;;;13.38;;
78197;SDS011;67472;51.554;7.812;2024-02-04T00:35:38;19.83;;;13.02;;
78197;SDS011;67472;51.554;7.812;2024-02-04T00:38:24;17.33;;;13.63;;
78197;SDS011;67472;51.554;7.812;2024-02-04T00:41:13;17.88;;;12.60;;
78197;SDS011;67472;51.554;7.812;2024-02-04T00:44:00;15.77;;;11.90;;
78197;SDS011;67472;51.554;7.812;2024-02-04T00:46:47;17.05;;;11.90;;
78197;SDS011;67472;51.554;7.812;2024-02-04T00:49:33;15.30;;;10.02;;
78197;SDS011;67472;51.554;7.812;2024-02-04T00:52:20;12.27;;;9.85;;
78197;SDS011;67472;51.554;7.812;2024-02-04T00:55:07;14.77;;;9.32;;
78197;SDS011;67472;51.554;7.812;2024-02-04T00:57:55;13.20;;;9.70;;
78197;SDS011;67472;51.554;7.812;2024-02-04T01:00:44;10.80;;;8.55;;
78197;SDS011;67472;51.554;7.812;2024-02-04T01:03:31;11.25;;;8.85;;
78197;SDS011;67472;51.554;7.812;2024-02-04T01:06:18;14.55;;;9.05;;
78197;SDS011;67472;51.554;7.812;2024-02-04T01:09:04;10.30;;;7.40;;
78197;SDS011;67472;51.554;7.812;2024-02-04T01:11:51;12.32;;;7.68;;
78197;SDS011;67472;51.554;7.812;2024-02-04T01:14:39;12.07;;;7.90;;
78197;SDS011;67472;51.554;7.812;2024-02-04T01:17:25;7.97;;;7.18;;
78197;SDS011;67472;51.554;7.812;2024-02-04T01:20:11;7.70;;;6.90;;
78197;SDS011;67472;51.554;7.812;2024-02-04T01:22:58;8.77;;;6.95;;
78197;SDS011;67472;51.554;7.812;2024-02-04T01:25:44;9.73;;;6.72;;
78197;SDS011;67472;51.554;7.812;2024-02-04T01:28:30;11.40;;;7.80;;
78197;SDS011;67472;51.554;7.812;2024-02-04T01:31:17;8.45;;;7.10;;
78197;SDS011;67472;51.554;7.812;2024-02-04T01:34:03;6.60;;;5.60;;
78197;SDS011;67472;51.554;7.812;2024-02-04T01:36:50;9.90;;;5.50;;
78197;SDS011;67472;51.554;7.812;2024-02-04T01:39:36;9.90;;;5.95;;
78197;SDS011;67472;51.554;7.812;2024-02-04T01:42:24;6.65;;;5.80;;
78197;SDS011;67472;51.554;7.812;2024-02-04T01:45:10;5.95;;;5.00;;
78197;SDS011;67472;51.554;7.812;2024-02-04T01:47:58;6.15;;;5.15;;
78197;SDS011;67472;51.554;7.812;2024-02-04T01:50:44;5.35;;;4.75;;
78197;SDS011;67472;51.554;7.812;2024-02-04T01:53:33;6.32;;;3.95;;
78197;SDS011;67472;51.554;7.812;2024-02-04T01:56:20;4.63;;;4.13;;
78197;SDS011;67472;51.554;7.812;2024-02-04T01:59:08;3.33;;;2.88;;
78197;SDS011;67472;51.554;7.812;2024-02-04T02:01:58;4.30;;;3.22;;
78197;SDS011;67472;51.554;7.812;2024-02-04T02:04:47;3.45;;;3.10;;
78197;SDS011;67472;51.554;7.812;2024-02-04T02:07:34;4.97;;;3.13;;
78197;SDS011;67472;51.554;7.812;2024-02-04T02:10:20;3.40;;;3.03;;
78197;SDS011;67472;51.554;7.812;2024-02-04T02:13:11;3.13;;;2.70;;
78197;SDS011;67472;51.554;7.812;2024-02-04T02:16:05;3.08;;;2.70;;
78197;SDS011;67472;51.554;7.812;2024-02-04T02:18:56;3.85;;;2.80;;
78197;SDS011;67472;51.554;7.812;2024-02-04T02:21:52;2.33;;;2.00;;
78197;SDS011;67472;51.554;7.812;2024-02-04T02:24:48;2.45;;;2.25;;
78197;SDS011;67472;51.554;7.812;2024-02-04T02:27:45;3.60;;;2.15;;
78197;SDS011;67472;51.554;7.812;2024-02-04T02:30:33;2.22;;;2.08;;
78197;SDS011;67472;51.554;7.812;2024-02-04T02:33:21;2.15;;;1.95;;
78197;SDS011;67472;51.554;7.812;2024-02-04T02:36:09;3.20;;;2.28;;
78197;SDS011;67472;51.554;7.812;2024-02-04T02:39:04;2.60;;;1.92;;
78197;SDS011;67472;51.554;7.812;2024-02-04T02:42:03;3.70;;;2.25;;
78197;SDS011;67472;51.554;7.812;2024-02-04T02:44:50;2.40;;;2.00;;
78197;SDS011;67472;51.554;7.812;2024-02-04T02:47:39;2.15;;;1.95;;
78197;SDS011;67472;51.554;7.812;2024-02-04T02:50:27;2.22;;;2.13;;
78197;SDS011;67472;51.554;7.812;2024-02-04T02:53:14;2.15;;;2.05;;
78197;SDS011;67472;51.554;7.812;2024-02-04T02:56:04;2.50;;;2.30;;
78197;SDS011;67472;51.554;7.812;2024-02-04T02:58:55;2.83;;;2.60;;
78197;SDS011;67472;51.554;7.812;2024-02-04T03:01:42;2.70;;;2.50;;
78197;SDS011;67472;51.554;7.812;2024-02-04T03:04:28;3.40;;;3.10;;
78197;SDS011;67472;51.554;7.812;2024-02-04T03:07:14;3.85;;;3.45;;
78197;SDS011;67472;51.554;7.812;2024-02-04T03:10:00;4.53;;;4.10;;
78197;SDS011;67472;51.554;7.812;2024-02-04T03:12:47;5.03;;;4.28;;
78197;SDS011;67472;51.554;7.812;2024-02-04T03:15:35;5.70;;;5.10;;
78197;SDS011;67472;51.554;7.812;2024-02-04T03:18:22;5.82;;;5.22;;
78197;SDS011;67472;51.554;7.812;2024-02-04T03:21:12;8.48;;;5.63;;
78197;SDS011;67472;51.554;7.812;2024-02-04T03:23:59;7.57;;;6.18;;
78197;SDS011;67472;51.554;7.812;2024-02-04T03:26:47;8.02;;;6.93;;
78197;SDS011;67472;51.554;7.812;2024-02-04T03:29:33;10.10;;;7.95;;
78197;SDS011;67472;51.554;7.812;2024-02-04T03:32:21;10.45;;;8.85;;
78197;SDS011;67472;51.554;7.812;2024-02-04T03:35:07;12.30;;;9.50;;
78197;SDS011;67472;51.554;7.812;2024-02-04T03:37:55;14.10;;;10.20;;
78197;SDS011;67472;51.554;7.812;2024-02-04T03:40:41;12.93;;;9.65;;
78197;SDS011;67472;51.554;7.812;2024-02-04T03:43:27;12.52;;;10.15;;
78197;SDS011;67472;51.554;7.812;2024-02-04T03:46:14;16.77;;;11.70;;
78197;SDS011;67472;51.554;7.812;2024-02-04T03:49:03;14.57;;;11.48;;
78197;SDS011;67472;51.554;7.812;2024-02-04T03:51:49;14.40;;;10.98;;
78197;SDS011;67472;51.554;7.812;2024-02-04T03:54:35;13.50;;;11.52;;
78197;SDS011;67472;51.554;7.812;2024-02-04T03:57:22;18.10;;;13.77;;
78197;SDS011;67472;51.554;7.812;2024-02-04T04:00:09;20.25;;;13.38;;
78197;SDS011;67472;51.554;7.812;2024-02-04T04:02:58;22.85;;;13.65;;
78197;SDS011;67472;51.554;7.812;2024-02-04T04:05:46;23.40;;;15.25;;
78197;SDS011;67472;51.554;7.812;2024-02-04T04:08:32;17.33;;;13.75;;
78197;SDS011;67472;51.554;7.812;2024-02-04T04:11:19;17.70;;;12.75;;
78197;SDS011;67472;51.554;7.812;2024-02-04T04:14:06;19.67;;;14.50;;
78197;SDS011;67472;51.554;7.812;2024-02-04T04:16:53;20.45;;;14.65;;
78197;SDS011;67472;51.554;7.812;2024-02-04T04:19:39;20.42;;;14.25;;
78197;SDS011;67472;51.554;7.812;2024-02-04T04:22:27;21.00;;;14.88;;
78197;SDS011;67472;51.554;7.812;2024-02-04T04:25:14;18.15;;;13.05;;
78197;SDS011;67472;51.554;7.812;2024-02-04T04:28:01;19.40;;;14.55;;
78197;SDS011;67472;51.554;7.812;2024-02-04T04:30:50;22.30;;;14.40;;
78197;SDS011;67472;51.554;7.812;2024-02-04T04:33:37;19.35;;;14.23;;
78197;SDS011;67472;51.554;7.812;2024-02-04T04:36:23;17.55;;;13.32;;
78197;SDS011;67472;51.554;7.812;2024-02-04T04:39:11;22.60;;;14.38;;
78197;SDS011;67472;51.554;7.812;2024-02-04T04:41:58;20.85;;;14.10;;
78197;SDS011;67472;51.554;7.812;2024-02-04T04:44:45;18.70;;;13.95;;
78197;SDS011;67472;51.554;7.812;2024-02-04T04:47:32;23.75;;;15.45;;
78197;SDS011;67472;51.554;7.812;2024-02-04T04:50:19;26.52;;;17.13;;
78197;SDS011;67472;51.554;7.812;2024-02-04T04:53:06;25.02;;;15.85;;
78197;SDS011;67472;51.554;7.812;2024-02-04T04:55:54;22.23;;;16.10;;
78197;SDS011;67472;51.554;7.812;2024-02-04T04:58:40;24.00;;;16.52;;
78197;SDS011;67472;51.554;7.812;2024-02-04T05:01:28;30.30;;;18.35;;
78197;SDS011;67472;51.554;7.812;2024-02-04T05:04:14;32.88;;;20.27;;
78197;SDS011;67472;51.554;7.812;2024-02-04T05:07:01;29.27;;;19.52;;
78197;SDS011;67472;51.554;7.812;2024-02-04T05:09:48;31.67;;;18.85;;
78197;SDS011;67472;51.554;7.812;2024-02-04T05:12:36;27.50;;;19.70;;
78197;SDS011;67472;51.554;7.812;2024-02-04T05:15:22;29.63;;;19.83;;
78197;SDS011;67472;51.554;7.812;2024-02-04T05:18:11;27.02;;;19.05;;
78197;SDS011;67472;51.554;7.812;2024-02-04T05:20:58;30.25;;;20.20;;
78197;SDS011;67472;51.554;7.812;2024-02-04T05:23:46;33.95;;;19.35;;
78197;SDS011;67472;51.554;7.812;2024-02-04T05:26:33;31.45;;;20.23;;
78197;SDS011;67472;51.554;7.812;2024-02-04T05:29:21;27.73;;;17.90;;
78197;SDS011;67472;51.554;7.812;2024-02-04T05:32:08;24.08;;;16.42;;
78197;SDS011;67472;51.554;7.812;2024-02-04T05:34:54;22.75;;;16.40;;
78197;SDS011;67472;51.554;7.812;2024-02-04T05:37:42;24.45;;;17.05;;
78197;SDS011;67472;51.554;7.812;2024-02-04T05:40:28;28.75;;;17.90;;
78197;SDS011;67472;51.554;7.812;2024-02-04T05:43:14;25.33;;;17.90;;
78197;SDS011;67472;51.554;7.812;2024-02-04T05:46:03;26.42;;;18.17;;
78197;SDS011;67472;51.554;7.812;2024-02-04T05:48:50;26.52;;;18.77;;
78197;SDS011;67472;51.554;7.812;2024-02-04T05:51:37;31.40;;;20.38;;
78197;SDS011;67472;51.554;7.812;2024-02-04T05:54:25;28.17;;;19.50;;
78197;SDS011;67472;51.554;7.812;2024-02-04T05:57:12;26.92;;;20.30;;
78197;SDS011;67472;51.554;7.812;2024-02-04T05:59:58;30.02;;;21.30;;
78197;SDS011;67472;51.554;7.812;2024-02-04T06:02:46;32.10;;;21.35;;
78197;SDS011;67472;51.554;7.812;2024-02-04T06:05:32;40.60;;;24.13;;
78197;SDS011;67472;51.554;7.812;2024-02-04T06:08:19;33.78;;;22.83;;
78197;SDS011;67472;51.554;7.812;2024-02-04T06:11:06;35.80;;;22.83;;
78197;SDS011;67472;51.554;7.812;2024-02-04T06:13:55;36.60;;;22.88;;
78197;SDS011;67472;51.554;7.812;2024-02-04T06:16:41;33.03;;;23.02;;
78197;SDS011;67472;51.554;7.812;2024-02-04T06:19:29;34.42;;;23.35;;
78197;SDS011;67472;51.554;7.812;2024-02-04T06:22:15;36.50;;;23.58;;
78197;SDS011;67472;51.554;7.812;2024-02-04T06:25:02;37.95;;;24.00;;
78197;SDS011;67472;51.554;7.812;2024-02-04T06:27:48;35.90;;;23.50;;
78197;SDS011;67472;51.554;7.812;2024-02-04T06:30:36;34.28;;;23.60;;
78197;SDS011;67472;51.554;7.812;2024-02-04T06:33:22;39.15;;;24.17;;
78197;SDS011;67472;51.554;7.812;2024-02-04T06:36:10;36.38;;;24.17;;
78197;SDS011;67472;51.554;7.812;2024-02-04T06:38:58;33.70;;;24.27;;
78197;SDS011;67472;51.554;7.812;2024-02-04T06:41:44;36.42;;;24.10;;
78197;SDS011;67472;51.554;7.812;2024-02-04T06:44:30;30.83;;;22.17;;
78197;SDS011;67472;51.554;7.812;2024-02-04T06:47:16;30.00;;;21.98;;
78197;SDS011;67472;51.554;7.812;2024-02-04T06:50:03;32.72;;;22.10;;
78197;SDS011;67472;51.554;7.812;2024-02-04T06:52:51;32.45;;;22.80;;
78197;SDS011;67472;51.554;7.812;2024-02-04T06:55:37;36.90;;;24.80;;
78197;SDS011;67472;51.554;7.812;2024-02-04T06:58:24;36.95;;;22.30;;
78197;SDS011;67472;51.554;7.812;2024-02-04T07:01:13;31.23;;;21.70;;
78197;SDS011;67472;51.554;7.812;2024-02-04T07:04:00;33.03;;;19.77;;
78197;SDS011;67472;51.554;7.812;2024-02-04T07:06:47;29.23;;;19.88;;
78197;SDS011;67472;51.554;7.812;2024-02-04T07:09:35;28.88;;;20.33;;
78197;SDS011;67472;51.554;7.812;2024-02-04T07:12:21;31.17;;;20.15;;
78197;SDS011;67472;51.554;7.812;2024-02-04T07:15:09;32.30;;;20.95;;
78197;SDS011;67472;51.554;7.812;2024-02-04T07:17:55;31.90;;;21.08;;
78197;SDS011;67472;51.554;7.812;2024-02-04T07:20:41;31.35;;;21.00;;
78197;SDS011;67472;51.554;7.812;2024-02-04T07:23:28;31.83;;;21.33;;
78197;SDS011;67472;51.554;7.812;2024-02-04T07:26:16;33.20;;;20.95;;
78197;SDS011;67472;51.554;7.812;2024-02-04T07:29:02;30.40;;;21.23;;
78197;SDS011;67472;51.554;7.812;2024-02-04T07:31:49;31.83;;;20.73;;
78197;SDS011;67472;51.554;7.812;2024-02-04T07:34:35;27.40;;;17.75;;
78197;SDS011;67472;51.554;7.812;2024-02-04T07:37:23;29.63;;;18.95;;
78197;SDS011;67472;51.554;7.812;2024-02-04T07:40:09;26.30;;;17.60;;
78197;SDS011;67472;51.554;7.812;2024-02-04T07:42:58;27.13;;;17.10;;
78197;SDS011;67472;51.554;7.812;2024-02-04T07:45:44;24.27;;;16.50;;
78197;SDS011;67472;51.554;7.812;2024-02-04T07:48:30;24.15;;;16.17;;
78197;SDS011;67472;51.554;7.812;2024-02-04T07:51:17;24.23;;;16.35;;
78197;SDS011;67472;51.554;7.812;2024-02-04T07:54:04;24.77;;;17.00;;
78197;SDS011;67472;51.554;7.812;2024-02-04T07:56:55;25.55;;;15.93;;
78197;SDS011;67472;51.554;7.812;2024-02-04T07:59:43;21.55;;;15.52;;
78197;SDS011;67472;51.554;7.812;2024-02-04T08:02:30;21.95;;;15.25;;
78197;SDS011;67472;51.554;7.812;2024-02-04T08:05:16;20.33;;;15.55;;
78197;SDS011;67472;51.554;7.812;2024-02-04T08:08:03;20.35;;;14.85;;
78197;SDS011;67472;51.554;7.812;2024-02-04T08:10:50;22.00;;;15.13;;
78197;SDS011;67472;51.554;7.812;2024-02-04T08:13:37;20.77;;;15.73;;
78197;SDS011;67472;51.554;7.812;2024-02-04T08:16:25;21.52;;;15.40;;
78197;SDS011;67472;51.554;7.812;2024-02-04T08:19:12;23.55;;;16.73;;
78197;SDS011;67472;51.554;7.812;2024-02-04T08:21:58;24.75;;;17.13;;
78197;SDS011;67472;51.554;7.812;2024-02-04T08:24:44;24.55;;;15.77;;
78197;SDS011;67472;51.554;7.812;2024-02-04T08:27:31;25.63;;;16.02;;
78197;SDS011;67472;51.554;7.812;2024-02-04T08:30:17;26.60;;;17.63;;
78197;SDS011;67472;51.554;7.812;2024-02-04T08:33:07;25.50;;;16.27;;
78197;SDS011;67472;51.554;7.812;2024-02-04T08:35:54;21.33;;;14.60;;
78197;SDS011;67472;51.554;7.812;2024-02-04T08:38:40;19.45;;;15.30;;
78197;SDS011;67472;51.554;7.812;2024-02-04T08:41:27;22.88;;;15.27;;
78197;SDS011;67472;51.554;7.812;2024-02-04T08:44:13;22.15;;;14.55;;
78197;SDS011;67472;51.554;7.812;2024-02-04T08:47:00;19.80;;;13.93;;
78197;SDS011;67472;51.554;7.812;2024-02-04T08:49:49;19.83;;;12.18;;
78197;SDS011;67472;51.554;7.812;2024-02-04T08:52:35;16.75;;;13.02;;
78197;SDS011;67472;51.554;7.812;2024-02-04T08:55:22;22.80;;;14.30;;
78197;SDS011;67472;51.554;7.812;2024-02-04T08:58:08;23.42;;;14.05;;
78197;SDS011;67472;51.554;7.812;2024-02-04T09:00:54;19.05;;;14.10;;
78197;SDS011;67472;51.554;7.812;2024-02-04T09:03:41;18.02;;;13.05;;
78197;SDS011;67472;51.554;7.812;2024-02-04T09:06:30;18.67;;;12.23;;
78197;SDS011;67472;51.554;7.812;2024-02-04T09:09:16;14.90;;;11.35;;
78197;SDS011;67472;51.554;7.812;2024-02-04T09:12:03;11.98;;;10.32;;
78197;SDS011;67472;51.554;7.812;2024-02-04T09:14:50;13.57;;;9.63;;
78197;SDS011;67472;51.554;7.812;2024-02-04T09:17:35;10.18;;;8.80;;
78197;SDS011;67472;51.554;7.812;2024-02-04T09:20:22;10.90;;;8.80;;
78197;SDS011;67472;51.554;7.812;2024-02-04T09:23:12;10.05;;;8.30;;
78197;SDS011;67472;51.554;7.812;2024-02-04T09:25:59;9.80;;;8.05;;
78197;SDS011;67472;51.554;7.812;2024-02-04T09:28:46;7.13;;;6.43;;
78197;SDS011;67472;51.554;7.812;2024-02-04T09:31:35;8.10;;;5.55;;
78197;SDS011;67472;51.554;7.812;2024-02-04T09:34:21;7.38;;;6.53;;
78197;SDS011;67472;51.554;7.812;2024-02-04T09:37:08;9.55;;;6.13;;
78197;SDS011;67472;51.554;7.812;2024-02-04T09:39:56;6.47;;;5.18;;
78197;SDS011;67472;51.554;7.812;2024-02-04T09:42:42;7.43;;;5.65;;
78197;SDS011;67472;51.554;7.812;2024-02-04T09:45:29;10.65;;;4.78;;
78197;SDS011;67472;51.554;7.812;2024-02-04T09:48:16;7.60;;;4.80;;
78197;SDS011;67472;51.554;7.812;2024-02-04T09:51:07;5.30;;;4.03;;
78197;SDS011;67472;51.554;7.812;2024-02-04T09:53:55;6.07;;;4.03;;
78197;SDS011;67472;51.554;7.812;2024-02-04T09:56:50;5.22;;;3.22;;
78197;SDS011;67472;51.554;7.812;2024-02-04T09:59:38;3.83;;;3.17;;
78197;SDS011;67472;51.554;7.812;2024-02-04T10:02:24;5.72;;;3.42;;
78197;SDS011;67472;51.554;7.812;2024-02-04T10:05:11;5.15;;;3.10;;
78197;SDS011;67472;51.554;7.812;2024-02-04T10:07:58;7.45;;;3.40;;
78197;SDS011;67472;51.554;7.812;2024-02-04T10:10:45;4.32;;;3.05;;
78197;SDS011;67472;51.554;7.812;2024-02-04T10:13:43;4.60;;;2.97;;
78197;SDS011;67472;51.554;7.812;2024-02-04T10:16:30;4.00;;;3.53;;
78197;SDS011;67472;51.554;7.812;2024-02-04T10:19:17;4.82;;;3.88;;
78197;SDS011;67472;51.554;7.812;2024-02-04T10:22:03;3.28;;;2.97;;
78197;SDS011;67472;51.554;7.812;2024-02-04T10:24:51;3.45;;;2.97;;
78197;SDS011;67472;51.554;7.812;2024-02-04T10:27:40;3.35;;;3.00;;
78197;SDS011;67472;51.554;7.812;2024-02-04T10:30:31;4.90;;;3.80;;
78197;SDS011;67472;51.554;7.812;2024-02-04T10:33:19;5.78;;;3.15;;
78197;SDS011;67472;51.554;7.812;2024-02-04T10:36:07;3.15;;;2.72;;
78197;SDS011;67472;51.554;7.812;2024-02-04T10:38:55;4.63;;;3.25;;
78197;SDS011;67472;51.554;7.812;2024-02-04T10:41:42;4.50;;;3.60;;
78197;SDS011;67472;51.554;7.812;2024-02-04T10:44:35;7.88;;;4.03;;
78197;SDS011;67472;51.554;7.812;2024-02-04T10:47:29;5.63;;;3.80;;
78197;SDS011;67472;51.554;7.812;2024-02-04T10:50:17;5.18;;;3.75;;
78197;SDS011;67472;51.554;7.812;2024-02-04T10:53:04;4.45;;;3.55;;
78197;SDS011;67472;51.554;7.812;2024-02-04T10:55:52;5.20;;;3.65;;
78197;SDS011;67472;51.554;7.812;2024-02-04T10:58:45;4.45;;;3.83;;
78197;SDS011;67472;51.554;7.812;2024-02-04T11:01:33;4.72;;;4.10;;
78197;SDS011;67472;51.554;7.812;2024-02-04T11:04:21;4.57;;;3.85;;
78197;SDS011;67472;51.554;7.812;2024-02-04T11:07:09;9.55;;;4.25;;
78197;SDS011;67472;51.554;7.812;2024-02-04T11:09:57;7.85;;;5.60;;
78197;SDS011;67472;51.554;7.812;2024-02-04T11:12:44;6.85;;;5.35;;
78197;SDS011;67472;51.554;7.812;2024-02-04T11:15:34;7.72;;;6.45;;
78197;SDS011;67472;51.554;7.812;2024-02-04T11:18:37;9.30;;;6.25;;
78197;SDS011;67472;51.554;7.812;2024-02-04T11:25:29;9.23;;;7.38;;
78197;SDS011;67472;51.554;7.812;2024-02-04T11:28:51;8.45;;;7.55;;
78197;SDS011;67472;51.554;7.812;2024-02-04T11:31:38;12.75;;;8.68;;
78197;SDS011;67472;51.554;7.812;2024-02-04T11:34:25;10.00;;;8.02;;
78197;SDS011;67472;51.554;7.812;2024-02-04T11:37:16;12.05;;;10.00;;
78197;SDS011;67472;51.554;7.812;2024-02-04T11:40:06;10.15;;;8.68;;
78197;SDS011;67472;51.554;7.812;2024-02-04T11:43:02;8.95;;;7.93;;
78197;SDS011;67472;51.554;7.812;2024-02-04T11:45:51;10.98;;;7.55;;
78197;SDS011;67472;51.554;7.812;2024-02-04T11:48:39;7.47;;;6.10;;
78197;SDS011;67472;51.554;7.812;2024-02-04T11:51:26;12.30;;;6.72;;
78197;SDS011;67472;51.554;7.812;2024-02-04T11:54:13;8.73;;;5.75;;
78197;SDS011;67472;51.554;7.812;2024-02-04T11:57:02;6.47;;;5.47;;
78197;SDS011;67472;51.554;7.812;2024-02-04T11:59:49;7.32;;;5.20;;
78197;SDS011;67472;51.554;7.812;2024-02-04T12:02:36;6.28;;;5.65;;
78197;SDS011;67472;51.554;7.812;2024-02-04T12:05:23;8.93;;;7.05;;
78197;SDS011;67472;51.554;7.812;2024-02-04T12:08:10;10.50;;;7.72;;
78197;SDS011;67472;51.554;7.812;2024-02-04T12:10:57;8.70;;;7.90;;
78197;SDS011;67472;51.554;7.812;2024-02-04T12:13:47;9.85;;;8.02;;
78197;SDS011;67472;51.554;7.812;2024-02-04T12:16:37;9.68;;;8.30;;
78197;SDS011;67472;51.554;7.812;2024-02-04T12:19:24;6.85;;;6.15;;
78197;SDS011;67472;51.554;7.812;2024-02-04T12:22:11;8.55;;;6.18;;
78197;SDS011;67472;51.554;7.812;2024-02-04T12:24:59;6.32;;;5.28;;
78197;SDS011;67472;51.554;7.812;2024-02-04T12:27:46;5.30;;;4.80;;
78197;SDS011;67472;51.554;7.812;2024-02-04T12:30:35;4.68;;;3.75;;
78197;SDS011;67472;51.554;7.812;2024-02-04T12:33:22;6.22;;;4.57;;
78197;SDS011;67472;51.554;7.812;2024-02-04T12:36:08;6.38;;;5.78;;
78197;SDS011;67472;51.554;7.812;2024-02-04T12:38:55;7.45;;;6.55;;
78197;SDS011;67472;51.554;7.812;2024-02-04T12:41:42;9.60;;;7.80;;
78197;SDS011;67472;51.554;7.812;2024-02-04T12:44:29;9.18;;;8.02;;
78197;SDS011;67472;51.554;7.812;2024-02-04T12:47:19;11.38;;;9.68;;
78197;SDS011;67472;51.554;7.812;2024-02-04T12:50:07;12.88;;;10.65;;
78197;SDS011;67472;51.554;7.812;2024-02-04T12:53:02;14.50;;;11.30;;
78197;SDS011;67472;51.554;7.812;2024-02-04T12:55:57;13.35;;;10.55;;
78197;SDS011;67472;51.554;7.812;2024-02-04T12:58:44;9.30;;;8.40;;
78197;SDS011;67472;51.554;7.812;2024-02-04T13:01:31;11.45;;;8.82;;
78197;SDS011;67472;51.554;7.812;2024-02-04T13:04:19;7.53;;;6.38;;
78197;SDS011;67472;51.554;7.812;2024-02-04T13:07:06;6.50;;;5.80;;
78197;SDS011;67472;51.554;7.812;2024-02-04T13:09:57;5.18;;;4.68;;
78197;SDS011;67472;51.554;7.812;2024-02-04T13:12:45;5.15;;;4.68;;
78197;SDS011;67472;51.554;7.812;2024-02-04T13:15:32;5.05;;;4.38;;
78197;SDS011;67472;51.554;7.812;2024-02-04T13:18:19;4.32;;;3.92;;
78197;SDS011;67472;51.554;7.812;2024-02-04T13:21:07;5.57;;;5.00;;
78197;SDS011;67472;51.554;7.812;2024-02-04T13:23:53;6.38;;;5.70;;
78197;SDS011;67472;51.554;7.812;2024-02-04T13:26:39;8.38;;;6.75;;
78197;SDS011;67472;51.554;7.812;2024-02-04T13:29:26;7.82;;;7.00;;
78197;SDS011;67472;51.554;7.812;2024-02-04T13:32:15;10.95;;;8.48;;
78197;SDS011;67472;51.554;7.812;2024-02-04T13:35:02;9.85;;;8.75;;
78197;SDS011;67472;51.554;7.812;2024-02-04T13:37:50;10.60;;;9.45;;
78197;SDS011;67472;51.554;7.812;2024-02-04T13:40:37;10.38;;;8.98;;
78197;SDS011;67472;51.554;7.812;2024-02-04T13:43:24;11.65;;;9.48;;
78197;SDS011;67472;51.554;7.812;2024-02-04T13:46:11;10.52;;;9.45;;
78197;SDS011;67472;51.554;7.812;2024-02-04T13:48:57;13.55;;;8.98;;
78197;SDS011;67472;51.554;7.812;2024-02-04T13:51:43;9.90;;;8.63;;
78197;SDS011;67472;51.554;7.812;2024-02-04T13:54:37;10.23;;;8.15;;
78197;SDS011;67472;51.554;7.812;2024-02-04T13:57:26;9.60;;;8.60;;
78197;SDS011;67472;51.554;7.812;2024-02-04T14:00:13;11.02;;;8.25;;
78197;SDS011;67472;51.554;7.812;2024-02-04T14:03:00;10.05;;;8.48;;
78197;SDS011;67472;51.554;7.812;2024-02-04T14:05:46;8.98;;;8.05;;
78197;SDS011;67472;51.554;7.812;2024-02-04T14:08:32;9.07;;;8.13;;
78197;SDS011;67472;51.554;7.812;2024-02-04T14:11:21;15.35;;;8.75;;
78197;SDS011;67472;51.554;7.812;2024-02-04T14:14:09;7.75;;;6.97;;
78197;SDS011;67472;51.554;7.812;2024-02-04T14:16:57;7.35;;;6.63;;
78197;SDS011;67472;51.554;7.812;2024-02-04T14:19:44;7.68;;;6.90;;
78197;SDS011;67472;51.554;7.812;2024-02-04T14:22:33;7.95;;;6.93;;
78197;SDS011;67472;51.554;7.812;2024-02-04T14:25:20;9.10;;;7.35;;
78197;SDS011;67472;51.554;7.812;2024-02-04T14:28:10;8.43;;;7.55;;
78197;SDS011;67472;51.554;7.812;2024-02-04T14:30:56;7.55;;;6.82;;
78197;SDS011;67472;51.554;7.812;2024-02-04T14:33:42;7.20;;;6.50;;
78197;SDS011;67472;51.554;7.812;2024-02-04T14:36:29;11.90;;;6.60;;
78197;SDS011;67472;51.554;7.812;2024-02-04T14:39:16;9.23;;;7.18;;
78197;SDS011;67472;51.554;7.812;2024-02-04T14:42:03;7.70;;;6.20;;
78197;SDS011;67472;51.554;7.812;2024-02-04T14:44:51;7.53;;;6.75;;
78197;SDS011;67472;51.554;7.812;2024-02-04T14:47:38;10.40;;;7.78;;
78197;SDS011;67472;51.554;7.812;2024-02-04T14:50:24;9.95;;;7.32;;
78197;SDS011;67472;51.554;7.812;2024-02-04T14:53:10;9.43;;;7.70;;
78197;SDS011;67472;51.554;7.812;2024-02-04T14:55:58;10.23;;;7.95;;
78197;SDS011;67472;51.554;7.812;2024-02-04T14:58:44;8.82;;;7.97;;
78197;SDS011;67472;51.554;7.812;2024-02-04T15:01:33;8.55;;;7.65;;
78197;SDS011;67472;51.554;7.812;2024-02-04T15:04:20;10.93;;;8.35;;
78197;SDS011;67472;51.554;7.812;2024-02-04T15:07:06;9.40;;;8.18;;
78197;SDS011;67472;51.554;7.812;2024-02-04T15:09:55;9.20;;;8.27;;
78197;SDS011;67472;51.554;7.812;2024-02-04T15:12:43;8.55;;;7.70;;
78197;SDS011;67472;51.554;7.812;2024-02-04T15:15:30;8.50;;;7.68;;
78197;SDS011;67472;51.554;7.812;2024-02-04T15:18:20;9.57;;;8.68;;
78197;SDS011;67472;51.554;7.812;2024-02-04T15:21:08;11.30;;;9.60;;
78197;SDS011;67472;51.554;7.812;2024-02-04T15:23:55;9.10;;;8.20;;
78197;SDS011;67472;51.554;7.812;2024-02-04T15:26:48;8.98;;;7.70;;
78197;SDS011;67472;51.554;7.812;2024-02-04T15:29:37;8.70;;;7.43;;
78197;SDS011;67472;51.554;7.812;2024-02-04T15:32:25;7.50;;;6.47;;
78197;SDS011;67472;51.554;7.812;2024-02-04T15:35:16;8.32;;;7.13;;
78197;SDS011;67472;51.554;7.812;2024-02-04T15:38:03;8.40;;;7.05;;
78197;SDS011;67472;51.554;7.812;2024-02-04T15:40:49;10.23;;;8.23;;
78197;SDS011;67472;51.554;7.812;2024-02-04T15:43:36;11.20;;;8.15;;
78197;SDS011;67472;51.554;7.812;2024-02-04T15:46:24;13.82;;;9.57;;
78197;SDS011;67472;51.554;7.812;2024-02-04T15:49:12;10.40;;;9.13;;
78197;SDS011;67472;51.554;7.812;2024-02-04T15:52:02;12.15;;;9.80;;
78197;SDS011;67472;51.554;7.812;2024-02-04T15:54:49;16.02;;;11.68;;
78197;SDS011;67472;51.554;7.812;2024-02-04T15:57:37;17.38;;;11.75;;
78197;SDS011;67472;51.554;7.812;2024-02-04T16:00:29;14.55;;;11.82;;
78197;SDS011;67472;51.554;7.812;2024-02-04T16:03:16;17.48;;;12.05;;
78197;SDS011;67472;51.554;7.812;2024-02-04T16:06:03;14.60;;;11.52;;
78197;SDS011;67472;51.554;7.812;2024-02-04T16:08:54;11.80;;;9.68;;
78197;SDS011;67472;51.554;7.812;2024-02-04T16:11:42;12.45;;;9.88;;
78197;SDS011;67472;51.554;7.812;2024-02-04T16:14:39;11.98;;;9.52;;
78197;SDS011;67472;51.554;7.812;2024-02-04T16:17:29;14.38;;;9.38;;
78197;SDS011;67472;51.554;7.812;2024-02-04T16:20:18;19.40;;;9.48;;
78197;SDS011;67472;51.554;7.812;2024-02-04T16:23:05;15.05;;;12.13;;
78197;SDS011;67472;51.554;7.812;2024-02-04T16:25:53;16.98;;;13.77;;
78197;SDS011;67472;51.554;7.812;2024-02-04T16:28:40;18.45;;;13.82;;
78197;SDS011;67472;51.554;7.812;2024-02-04T16:31:27;19.42;;;14.20;;
78197;SDS011;67472;51.554;7.812;2024-02-04T16:34:13;20.17;;;14.65;;
78197;SDS011;67472;51.554;7.812;2024-02-04T16:37:00;18.80;;;15.02;;
78197;SDS011;67472;51.554;7.812;2024-02-04T16:39:50;23.90;;;14.43;;